Terminal Aerodrome Forecast
Issued by NWS

Current Version | Previous Version | Text Only | Print | Product List | Glossary Off
Versions: 1 2 3 4 5 6 7 8 9 10 11 12 13 14 15 16 17 18 19 20 21 22 23 24 25 26 27 28 29 30 31 32 33 34 35 36 37 38 39 40 41 42 43 44 45 46 47 48 49 50

421
FTUS41 KRNK 022340
TAFLWB
TAF
KLWB 022340Z 0300/0324 VRB03KT 6SM -SHRA SCT018 OVC070
     FM030500 VRB03KT 4SM BR VCSH SCT007 OVC015
      TEMPO 0308/0312 1SM BR OVC007
     FM031500 27008KT P6SM OVC025
     FM032100 27006KT P6SM BKN035=

USA.gov is the U.S. government's official web portal to all federal, state and local government web resources and services.